Terminal Aerodrome Forecast
Issued by NWS

Home | Current Version | Previous Version | Text Only | Print | Product List | Glossary On
Versions: 1 2 3 4 5 6 7 8 9 10 11 12 13
000
FTUS46 KSTO 241100
TAFRDD
TAF
KRDD 241133Z 2412/2512 VRB04KT P6SM SKC
     FM241600 35012G18KT P6SM SKC
     FM242200 33008KT P6SM SKC
     FM250300 VRB04KT P6SM SKC=

USA.gov is the U.S. government's official web portal to all federal, state and local government web resources and services.